Smelterville, Idaho
Current Conditions -  °F | °C
As of 9:53 AM on Thursday 30 Oct 2014 (Local Time) from KMLP Reporting Station
Moderate Fog Moderate Fog  
Wind Chill: 28°   Ceiling: 100
Heat Index: 35°   Visibility: 0mi
Dew Point: 35°   Wind: 9mph
Humidity: 100%   Direction: 140°SE
Pressure: 30.18"   Gusts: 17mph
Location:  47.54°N, 116.18°W
Report Text: KMLP 301653Z AUTO 14008G15KT M1/4SM FG VV001 02/02 A3018 RMK AO2 SLP186 T00170017
Loading
Personal Weather Stations






























Interactive Weather Map
Tropical Storm Tracking
New forecast layout! Learn more

10-Day Weather Forecast

Advertisements
Track Severe Weather on mobile